createdAt,value
2023-02-23T00:01:57.392Z,101112.47
2023-02-23T00:04:26.451Z,101110.78
2023-02-23T00:06:54.944Z,101113.75
2023-02-23T00:09:28.065Z,101111.94
2023-02-23T00:11:56.922Z,101121.75
2023-02-23T00:14:28.334Z,101117.72
2023-02-23T00:16:57.073Z,101107.06
2023-02-23T00:19:26.103Z,101107.63
2023-02-23T00:21:55.090Z,101101.72
2023-02-23T00:24:23.444Z,101109.56
2023-02-23T00:26:51.841Z,101108.47
2023-02-23T00:29:20.839Z,101111.16
2023-02-23T00:31:51.040Z,101117.56
2023-02-23T00:34:21.667Z,101111.09
2023-02-23T00:36:51.692Z,101119.09
2023-02-23T00:39:23.243Z,101115.63
2023-02-23T00:41:52.589Z,101123.34
2023-02-23T00:44:23.715Z,101120.66
2023-02-23T00:46:53.812Z,101120.78
2023-02-23T00:49:23.275Z,101117.56
2023-02-23T00:51:52.385Z,101124.78
2023-02-23T00:54:21.886Z,101116.25
2023-02-23T00:56:50.321Z,101114.50
2023-02-23T00:59:18.716Z,101110.22
2023-02-23T01:01:47.445Z,101117.59
2023-02-23T01:04:16.910Z,101118.53
2023-02-23T01:06:46.531Z,101119.56
2023-02-23T01:09:16.279Z,101120.50
2023-02-23T01:11:47.005Z,101129.38
2023-02-23T01:14:16.430Z,101133.00
2023-02-23T01:16:44.505Z,101138.31
2023-02-23T01:19:13.845Z,101136.81
2023-02-23T01:21:46.262Z,101144.16
2023-02-23T01:24:14.539Z,101152.22
2023-02-23T01:26:44.654Z,101144.22
2023-02-23T01:29:13.751Z,101147.84
2023-02-23T01:31:43.415Z,101146.03
2023-02-23T01:34:13.075Z,101149.47
2023-02-23T01:36:42.514Z,101158.31
2023-02-23T01:39:12.917Z,101148.50
2023-02-23T01:41:43.533Z,101160.97
2023-02-23T01:44:26.804Z,101160.97
2023-02-23T01:46:57.065Z,101160.03
2023-02-23T01:49:26.974Z,101166.59
2023-02-23T01:51:57.082Z,101162.03
2023-02-23T01:54:29.132Z,101169.91
2023-02-23T01:56:59.266Z,101176.19
2023-02-23T01:59:30.190Z,101179.75
2023-02-23T02:01:58.636Z,101178.69
2023-02-23T02:04:27.236Z,101191.34
2023-02-23T02:06:56.907Z,101188.59
2023-02-23T02:09:28.465Z,101194.09
2023-02-23T02:11:56.928Z,101192.97
2023-02-23T02:14:28.756Z,101199.06
2023-02-23T02:17:17.177Z,101186.84
2023-02-23T02:20:06.339Z,101199.63
2023-02-23T02:22:43.831Z,101197.72
2023-02-23T02:25:33.406Z,101191.91
2023-02-23T02:28:22.342Z,101199.81
2023-02-23T02:31:08.659Z,101208.75
2023-02-23T02:33:55.733Z,101204.47
2023-02-23T02:36:41.594Z,101205.34
2023-02-23T02:39:24.204Z,101204.66
2023-02-23T02:41:56.216Z,101207.78
2023-02-23T02:44:29.193Z,101214.06
2023-02-23T02:47:00.649Z,101209.84
2023-02-23T02:49:32.684Z,101210.59
2023-02-23T02:52:05.451Z,101210.69
2023-02-23T02:54:39.772Z,101205.75
2023-02-23T02:57:09.971Z,101209.34
2023-02-23T03:00:02.186Z,101217.63
2023-02-23T03:02:51.746Z,101218.84
2023-02-23T03:05:38.474Z,101223.50
2023-02-23T03:08:29.317Z,101220.25
2023-02-23T03:11:20.105Z,101224.72
2023-02-23T03:14:12.550Z,101232.72
2023-02-23T03:17:06.173Z,101237.44
2023-02-23T03:19:55.253Z,101241.13
2023-02-23T03:22:42.536Z,101243.78
2023-02-23T03:25:30.624Z,101239.34
2023-02-23T03:28:24.736Z,101246.63
2023-02-23T03:31:14.149Z,101245.09
2023-02-23T03:34:03.558Z,101241.66
2023-02-23T03:36:52.693Z,101245.63
2023-02-23T03:39:43.472Z,101237.97
2023-02-23T03:42:32.825Z,101244.59
2023-02-23T03:45:23.812Z,101249.34
2023-02-23T03:48:12.068Z,101257.50
2023-02-23T03:51:00.411Z,101250.44
2023-02-23T03:53:48.541Z,101262.19
2023-02-23T03:56:35.681Z,101256.69
2023-02-23T03:59:22.571Z,101271.56
2023-02-23T04:02:11.492Z,101263.41
2023-02-23T04:04:57.644Z,101280.16
2023-02-23T04:07:44.046Z,101285.31
2023-02-23T04:10:31.016Z,101269.25
2023-02-23T04:13:15.540Z,101286.06
2023-02-23T04:15:50.635Z,101284.34
2023-02-23T04:18:23.838Z,101280.06
2023-02-23T04:20:52.229Z,101295.16
2023-02-23T04:23:22.931Z,101279.53
2023-02-23T04:25:51.412Z,101297.22
2023-02-23T04:28:20.952Z,101289.47
2023-02-23T04:30:49.207Z,101285.78
2023-02-23T04:33:17.712Z,101295.59
2023-02-23T04:35:47.325Z,101293.97
2023-02-23T04:38:15.628Z,101295.84
2023-02-23T04:40:43.858Z,101289.56
2023-02-23T04:43:13.417Z,101294.66
2023-02-23T04:45:41.872Z,101292.09
2023-02-23T04:48:10.121Z,101291.72
2023-02-23T04:50:38.502Z,101293.28
2023-02-23T04:53:08.221Z,101290.53
2023-02-23T04:55:36.429Z,101298.44
2023-02-23T04:58:04.697Z,101302.72
2023-02-23T05:00:34.189Z,101292.94
2023-02-23T05:03:02.821Z,101293.88
2023-02-23T05:05:31.701Z,101291.22
2023-02-23T05:08:00.365Z,101292.25
2023-02-23T05:10:30.440Z,101292.31
2023-02-23T05:12:59.512Z,101287.97
2023-02-23T05:15:27.571Z,101279.19
2023-02-23T05:17:56.522Z,101276.63
2023-02-23T05:20:24.653Z,101274.03
2023-02-23T05:22:52.916Z,101269.84
2023-02-23T05:25:21.265Z,101272.66
2023-02-23T05:27:51.062Z,101278.16
2023-02-23T05:30:19.300Z,101277.41
2023-02-23T05:32:47.519Z,101284.78
2023-02-23T05:35:15.784Z,101285.88
2023-02-23T05:37:45.049Z,101284.50
2023-02-23T05:40:13.685Z,101277.78
2023-02-23T05:42:41.795Z,101272.72
2023-02-23T05:45:11.493Z,101271.25
2023-02-23T05:47:39.997Z,101269.69
2023-02-23T05:50:09.099Z,101275.38
2023-02-23T05:52:38.859Z,101269.25
2023-02-23T05:55:07.501Z,101271.16
2023-02-23T05:57:35.901Z,101273.00
2023-02-23T06:00:04.297Z,101275.06
2023-02-23T06:02:34.544Z,101272.78
2023-02-23T06:05:02.694Z,101274.59
2023-02-23T06:07:31.197Z,101270.38
2023-02-23T06:09:59.499Z,101282.28
2023-02-23T06:12:27.621Z,101282.44
2023-02-23T06:14:55.982Z,101280.88
2023-02-23T06:17:24.485Z,101286.19
2023-02-23T06:19:54.540Z,101289.03
2023-02-23T06:22:23.280Z,101282.81
2023-02-23T06:24:51.487Z,101286.53
2023-02-23T06:27:19.910Z,101290.13
2023-02-23T06:29:48.114Z,101293.69
2023-02-23T06:32:16.548Z,101292.69
2023-02-23T06:34:49.146Z,101295.25
2023-02-23T06:37:19.164Z,101305.91
2023-02-23T06:39:47.408Z,101312.53
2023-02-23T06:42:15.600Z,101311.97
2023-02-23T06:44:43.954Z,101312.47
2023-02-23T06:47:12.245Z,101315.41
2023-02-23T06:49:41.050Z,101305.84
2023-02-23T06:52:09.602Z,101303.28
2023-02-23T06:54:40.139Z,101312.22
2023-02-23T06:57:08.912Z,101321.25
2023-02-23T06:59:37.661Z,101325.91
2023-02-23T07:02:06.214Z,101327.88
2023-02-23T07:04:34.840Z,101329.88
2023-02-23T07:07:03.870Z,101329.03
2023-02-23T07:09:32.063Z,101333.47
2023-02-23T07:12:02.589Z,101338.78
2023-02-23T07:14:31.037Z,101338.78
2023-02-23T07:16:59.168Z,101337.34
2023-02-23T07:19:27.562Z,101351.00
2023-02-23T07:21:55.788Z,101357.63
2023-02-23T07:24:24.280Z,101363.19
2023-02-23T07:26:52.482Z,101361.63
2023-02-23T07:29:24.145Z,101361.50
2023-02-23T07:31:52.695Z,101362.25
2023-02-23T07:34:21.099Z,101354.22
2023-02-23T07:36:49.459Z,101363.06
2023-02-23T07:39:17.678Z,101373.69
2023-02-23T07:41:46.028Z,101379.84
2023-02-23T07:44:19.571Z,101382.41
2023-02-23T07:46:49.798Z,101387.72
2023-02-23T07:49:18.068Z,101389.31
2023-02-23T07:51:46.252Z,101392.53
2023-02-23T07:54:15.144Z,101388.75
2023-02-23T07:56:43.622Z,101382.13
2023-02-23T07:59:11.972Z,101391.59
2023-02-23T08:01:40.400Z,101397.84
2023-02-23T08:04:10.101Z,101409.53
2023-02-23T08:06:38.584Z,101409.38
2023-02-23T08:09:07.644Z,101408.22
2023-02-23T08:11:35.740Z,101410.81
2023-02-23T08:14:04.441Z,101414.28
2023-02-23T08:16:34.370Z,101407.81
2023-02-23T08:19:11.343Z,101407.50
2023-02-23T08:21:39.692Z,101409.84
2023-02-23T08:24:08.572Z,101401.69
2023-02-23T08:26:38.300Z,101402.22
2023-02-23T08:29:09.831Z,101412.50
2023-02-23T08:31:41.561Z,101408.75
2023-02-23T08:34:11.560Z,101413.75
2023-02-23T08:36:45.995Z,101411.56
2023-02-23T08:39:15.586Z,101416.41
2023-02-23T08:41:47.329Z,101425.78
2023-02-23T08:44:17.162Z,101434.50
2023-02-23T08:46:46.248Z,101434.09
2023-02-23T08:49:16.634Z,101427.53
2023-02-23T08:51:46.991Z,101434.16
2023-02-23T08:54:18.493Z,101436.38
2023-02-23T08:56:47.157Z,101439.50
2023-02-23T08:59:16.151Z,101435.63
2023-02-23T09:01:44.481Z,101442.22
2023-02-23T09:04:12.726Z,101436.28
2023-02-23T09:06:42.324Z,101457.31
2023-02-23T09:09:11.102Z,101457.25
2023-02-23T09:11:39.236Z,101461.84
2023-02-23T09:14:08.882Z,101459.25
2023-02-23T09:16:37.185Z,101466.66
2023-02-23T09:19:05.505Z,101467.66
2023-02-23T09:21:34.762Z,101460.13
2023-02-23T09:24:04.668Z,101461.56
2023-02-23T09:26:33.790Z,101467.09
2023-02-23T09:29:03.197Z,101465.13
2023-02-23T09:31:31.632Z,101461.34
2023-02-23T09:34:01.913Z,101462.50
2023-02-23T09:36:31.634Z,101470.72
2023-02-23T09:39:00.157Z,101458.16
2023-02-23T09:41:51.790Z,101466.09
2023-02-23T09:44:26.382Z,101469.16
2023-02-23T09:47:01.504Z,101460.59
2023-02-23T09:49:31.251Z,101445.78
2023-02-23T09:52:01.411Z,101438.56
2023-02-23T09:54:31.770Z,101428.72
2023-02-23T09:57:03.734Z,101421.53
2023-02-23T09:59:32.694Z,101410.84
2023-02-23T10:02:05.728Z,101399.75
2023-02-23T10:04:37.510Z,101370.84
2023-02-23T10:07:08.989Z,101362.41
2023-02-23T10:09:46.702Z,101353.84
2023-02-23T10:12:20.582Z,101339.03
2023-02-23T10:14:58.149Z,101344.22
2023-02-23T10:17:30.956Z,101329.31
2023-02-23T10:20:03.434Z,101325.84
2023-02-23T10:22:34.487Z,101331.75
2023-02-23T10:25:06.536Z,101322.44
2023-02-23T10:27:39.538Z,101315.88
2023-02-23T10:30:17.709Z,101310.84
2023-02-23T10:32:50.362Z,101309.03
2023-02-23T10:35:21.703Z,101309.06
2023-02-23T10:37:51.583Z,101311.09
2023-02-23T10:40:24.248Z,101313.22
2023-02-23T10:42:54.112Z,101313.31
2023-02-23T10:45:24.803Z,101307.41
2023-02-23T10:47:55.187Z,101305.19
2023-02-23T10:50:27.541Z,101312.47
2023-02-23T10:52:58.395Z,101311.09
2023-02-23T10:55:27.596Z,101312.97
2023-02-23T10:58:18.500Z,101317.72
2023-02-23T11:00:54.667Z,101318.03
2023-02-23T11:03:28.750Z,101318.25
2023-02-23T11:05:56.940Z,101325.06
2023-02-23T11:08:27.255Z,101325.59
2023-02-23T11:10:59.370Z,101321.00
2023-02-23T11:13:30.376Z,101315.44
2023-02-23T11:16:02.680Z,101307.03
2023-02-23T11:18:31.625Z,101303.16
2023-02-23T11:20:59.903Z,101309.59
2023-02-23T11:23:30.586Z,101307.72
2023-02-23T11:26:01.365Z,101305.25
2023-02-23T11:28:33.383Z,101295.06
2023-02-23T11:31:04.236Z,101287.91
2023-02-23T11:33:36.118Z,101281.47
2023-02-23T11:36:18.357Z,101275.75
2023-02-23T11:38:47.986Z,101273.56
2023-02-23T11:41:22.679Z,101264.47
2023-02-23T11:43:54.908Z,101270.22
2023-02-23T11:46:23.988Z,101270.56
2023-02-23T11:48:54.167Z,101271.81
2023-02-23T11:51:27.006Z,101271.22
2023-02-23T11:53:56.025Z,101274.88
2023-02-23T11:56:25.851Z,101275.56
2023-02-23T11:58:57.840Z,101261.75
2023-02-23T12:01:39.725Z,101258.69
2023-02-23T12:04:09.808Z,101258.75
2023-02-23T12:06:39.136Z,101255.75
2023-02-23T12:09:13.105Z,101262.41
2023-02-23T12:11:45.714Z,101261.03
2023-02-23T12:14:22.040Z,101252.44
2023-02-23T12:16:53.669Z,101249.59
2023-02-23T12:19:25.630Z,101257.38
2023-02-23T12:21:58.450Z,101247.03
2023-02-23T12:24:33.394Z,101245.84
2023-02-23T12:27:03.323Z,101230.75
2023-02-23T12:29:38.263Z,101241.50
2023-02-23T12:32:08.526Z,101233.63
2023-02-23T12:34:41.734Z,101224.59
2023-02-23T12:37:29.165Z,101220.56
2023-02-23T12:40:00.071Z,101225.06
2023-02-23T12:42:35.790Z,101217.66
2023-02-23T12:45:07.897Z,101208.66
2023-02-23T12:47:38.625Z,101213.53
2023-02-23T12:50:13.605Z,101206.94
2023-02-23T12:52:45.600Z,101206.69
2023-02-23T12:55:14.958Z,101204.44
2023-02-23T12:57:47.358Z,101196.91
2023-02-23T13:00:39.930Z,101194.53
2023-02-23T13:03:37.532Z,101196.47
2023-02-23T13:06:09.110Z,101194.66
2023-02-23T13:08:45.211Z,101196.31
2023-02-23T13:11:18.531Z,101193.03
2023-02-23T13:13:50.283Z,101191.94
2023-02-23T13:16:23.236Z,101196.44
2023-02-23T13:18:55.202Z,101189.63
2023-02-23T13:21:28.603Z,101183.06
2023-02-23T13:24:00.703Z,101180.28
2023-02-23T13:26:32.723Z,101169.53
2023-02-23T13:29:03.942Z,101165.41
2023-02-23T13:31:35.160Z,101153.19
2023-02-23T13:34:07.437Z,101151.50
2023-02-23T13:36:36.146Z,101155.81
2023-02-23T13:39:22.477Z,101159.78
2023-02-23T13:41:54.573Z,101163.31
2023-02-23T13:44:26.696Z,101175.88
2023-02-23T13:46:59.308Z,101172.72
2023-02-23T13:49:35.790Z,101168.63
2023-02-23T13:52:10.677Z,101170.56
2023-02-23T13:54:38.944Z,101175.03
2023-02-23T13:57:16.834Z,101164.59
2023-02-23T13:59:46.625Z,101165.53
2023-02-23T14:02:33.384Z,101170.25
2023-02-23T14:05:09.058Z,101166.66
2023-02-23T14:07:41.199Z,101167.13
2023-02-23T14:10:10.712Z,101166.50
2023-02-23T14:12:39.917Z,101170.06
2023-02-23T14:15:28.342Z,101165.81
2023-02-23T14:17:57.477Z,101161.81
2023-02-23T14:20:37.852Z,101158.94
2023-02-23T14:23:17.142Z,101154.13
2023-02-23T14:25:46.840Z,101153.53
2023-02-23T14:28:25.579Z,101151.13
2023-02-23T14:31:01.445Z,101148.63
2023-02-23T14:33:36.971Z,101145.16
2023-02-23T14:36:29.154Z,101141.31
2023-02-23T14:39:01.537Z,101150.75
2023-02-23T14:41:31.423Z,101148.03
2023-02-23T14:44:04.085Z,101141.78
2023-02-23T14:46:32.619Z,101144.97
2023-02-23T14:49:02.544Z,101141.16
2023-02-23T14:51:48.778Z,101143.75
2023-02-23T14:54:28.391Z,101135.50
2023-02-23T14:56:58.390Z,101137.31
2023-02-23T14:59:28.245Z,101143.84
2023-02-23T15:01:57.678Z,101137.69
2023-02-23T15:04:27.511Z,101132.00
2023-02-23T15:06:59.097Z,101128.25
2023-02-23T15:09:32.337Z,101127.13
2023-02-23T15:12:02.150Z,101131.06
2023-02-23T15:14:32.970Z,101120.38
2023-02-23T15:17:01.215Z,101125.09
2023-02-23T15:19:32.796Z,101111.88
2023-02-23T15:22:04.584Z,101121.91
2023-02-23T15:24:34.598Z,101114.38
2023-02-23T15:27:02.709Z,101113.69
2023-02-23T15:29:32.746Z,101111.72
2023-02-23T15:32:15.228Z,101102.88
2023-02-23T15:34:43.800Z,101111.78
2023-02-23T15:37:17.028Z,101110.84
2023-02-23T15:39:48.121Z,101111.34
2023-02-23T15:42:18.358Z,101106.66
2023-02-23T15:44:47.240Z,101106.38
2023-02-23T15:47:20.672Z,101104.78
2023-02-23T15:49:50.339Z,101100.72
2023-02-23T15:52:23.822Z,101098.34
2023-02-23T15:54:54.313Z,101098.66
2023-02-23T15:57:24.050Z,101091.72
2023-02-23T15:59:54.672Z,101095.84
2023-02-23T16:02:25.141Z,101107.38
2023-02-23T16:04:54.088Z,101098.16
2023-02-23T16:07:24.905Z,101107.06
2023-02-23T16:09:54.216Z,101105.34
2023-02-23T16:12:24.350Z,101108.03
2023-02-23T16:14:55.279Z,101098.53
2023-02-23T16:17:26.908Z,101104.78
2023-02-23T16:19:57.644Z,101100.81
2023-02-23T16:22:28.948Z,101097.69
2023-02-23T16:25:02.809Z,101088.19
2023-02-23T16:27:31.820Z,101097.41
2023-02-23T16:30:07.864Z,101093.75
2023-02-23T16:32:38.029Z,101098.00
2023-02-23T16:35:11.633Z,101095.19
2023-02-23T16:37:55.050Z,101093.19
2023-02-23T16:40:23.520Z,101091.75
2023-02-23T16:42:53.347Z,101085.53
2023-02-23T16:45:22.845Z,101086.28
2023-02-23T16:47:52.944Z,101088.09
2023-02-23T16:50:22.688Z,101091.25
2023-02-23T16:52:53.642Z,101091.69
2023-02-23T16:55:27.140Z,101095.06
2023-02-23T16:58:00.254Z,101091.84
2023-02-23T17:00:33.540Z,101090.84
2023-02-23T17:03:05.778Z,101088.44
2023-02-23T17:05:34.324Z,101084.03
2023-02-23T17:08:05.480Z,101090.53
2023-02-23T17:10:37.186Z,101090.25
2023-02-23T17:13:06.657Z,101092.06
2023-02-23T17:15:39.594Z,101097.75
2023-02-23T17:18:07.969Z,101101.16
2023-02-23T17:20:36.653Z,101094.34
2023-02-23T17:23:09.810Z,101095.47
2023-02-23T17:25:38.804Z,101100.00
2023-02-23T17:28:13.899Z,101097.28
2023-02-23T17:30:42.885Z,101100.69
2023-02-23T17:33:12.378Z,101098.38
2023-02-23T17:35:58.677Z,101097.97
2023-02-23T17:38:35.160Z,101094.25
2023-02-23T17:41:04.692Z,101090.56
2023-02-23T17:43:32.919Z,101094.41
2023-02-23T17:46:07.431Z,101095.66
2023-02-23T17:48:44.876Z,101092.78
2023-02-23T17:51:22.776Z,101087.69
2023-02-23T17:53:53.024Z,101085.66
2023-02-23T17:56:23.692Z,101091.91
2023-02-23T17:58:55.318Z,101088.75
2023-02-23T18:01:33.144Z,101088.03
2023-02-23T18:04:01.368Z,101084.63
2023-02-23T18:06:30.752Z,101086.59
2023-02-23T18:09:01.215Z,101089.56
2023-02-23T18:11:36.379Z,101092.06
2023-02-23T18:14:09.759Z,101097.88
2023-02-23T18:16:41.894Z,101090.56
2023-02-23T18:19:10.680Z,101101.00
2023-02-23T18:21:40.993Z,101099.59
2023-02-23T18:24:16.989Z,101099.13
2023-02-23T18:26:46.367Z,101104.63
2023-02-23T18:29:14.615Z,101118.72
2023-02-23T18:31:43.319Z,101119.72
2023-02-23T18:34:12.298Z,101120.97
2023-02-23T18:36:40.486Z,101118.53
2023-02-23T18:39:09.106Z,101122.59
2023-02-23T18:41:39.018Z,101122.00
2023-02-23T18:44:08.702Z,101123.09
2023-02-23T18:46:37.189Z,101113.59
2023-02-23T18:49:06.118Z,101118.63
2023-02-23T18:51:34.862Z,101119.59
2023-02-23T18:54:05.348Z,101117.44
2023-02-23T18:56:33.513Z,101126.63
2023-02-23T18:59:03.259Z,101124.44
2023-02-23T19:01:33.426Z,101130.44
2023-02-23T19:04:02.838Z,101119.94
2023-02-23T19:06:31.212Z,101121.31
2023-02-23T19:09:00.427Z,101124.13
2023-02-23T19:11:30.437Z,101122.66
2023-02-23T19:14:00.126Z,101122.91
2023-02-23T19:16:31.249Z,101125.13
2023-02-23T19:18:59.597Z,101125.38
2023-02-23T19:21:27.861Z,101123.69
2023-02-23T19:23:57.827Z,101123.69
2023-02-23T19:26:27.183Z,101117.66
2023-02-23T19:28:55.267Z,101118.19
2023-02-23T19:31:26.275Z,101112.19
2023-02-23T19:33:57.156Z,101109.50
2023-02-23T19:36:30.019Z,101107.91
2023-02-23T19:39:06.344Z,101113.41
2023-02-23T19:41:35.372Z,101112.19
2023-02-23T19:44:09.341Z,101111.09
2023-02-23T19:46:40.275Z,101114.41
2023-02-23T19:49:11.103Z,101115.25
2023-02-23T19:51:39.440Z,101118.06
2023-02-23T19:54:09.862Z,101115.38
2023-02-23T19:56:38.991Z,101116.47
2023-02-23T19:59:07.807Z,101114.88
2023-02-23T20:01:37.503Z,101114.88
2023-02-23T20:04:07.853Z,101120.50
2023-02-23T20:06:44.805Z,101117.09
2023-02-23T20:09:13.674Z,101112.97
2023-02-23T20:11:42.778Z,101113.09
2023-02-23T20:14:12.649Z,101118.47
2023-02-23T20:16:41.015Z,101116.00
2023-02-23T20:19:09.335Z,101113.44
2023-02-23T20:21:39.907Z,101114.44
2023-02-23T20:24:09.022Z,101114.69
2023-02-23T20:26:38.337Z,101118.59
2023-02-23T20:29:11.482Z,101120.50
2023-02-23T20:31:45.006Z,101117.00
2023-02-23T20:34:14.590Z,101117.13
2023-02-23T20:36:45.586Z,101120.50
2023-02-23T20:39:14.850Z,101117.84
2023-02-23T20:41:44.274Z,101121.25
2023-02-23T20:44:13.146Z,101115.78
2023-02-23T20:46:41.731Z,101127.09
2023-02-23T20:49:15.250Z,101122.47
2023-02-23T20:51:50.727Z,101121.47
2023-02-23T20:54:19.660Z,101115.91
2023-02-23T20:56:59.194Z,101114.78
2023-02-23T20:59:30.749Z,101117.59
2023-02-23T21:02:01.761Z,101116.75
2023-02-23T21:04:33.399Z,101106.84
2023-02-23T21:07:07.935Z,101107.84
2023-02-23T21:09:37.236Z,101108.81
2023-02-23T21:12:05.956Z,101101.72
2023-02-23T21:14:35.466Z,101100.88
2023-02-23T21:17:08.175Z,101099.88
2023-02-23T21:19:36.565Z,101100.00
2023-02-23T21:22:09.495Z,101108.19
2023-02-23T21:24:41.187Z,101107.34
2023-02-23T21:27:13.269Z,101107.34
2023-02-23T21:29:41.667Z,101114.44
2023-02-23T21:32:14.626Z,101107.34
2023-02-23T21:34:43.043Z,101110.75
2023-02-23T21:37:12.782Z,101099.16
2023-02-23T21:39:41.576Z,101104.41
2023-02-23T21:42:09.720Z,101107.09
2023-02-23T21:44:38.821Z,101104.66
2023-02-23T21:47:08.363Z,101097.47
2023-02-23T21:49:38.622Z,101095.91
2023-02-23T21:52:06.747Z,101094.91
2023-02-23T21:54:36.727Z,101092.22
2023-02-23T21:57:05.642Z,101101.25
2023-02-23T21:59:36.330Z,101099.53
2023-02-23T22:02:05.276Z,101091.50
2023-02-23T22:04:36.945Z,101094.31
2023-02-23T22:07:08.602Z,101099.41
2023-02-23T22:09:39.642Z,101096.88
2023-02-23T22:12:11.678Z,101098.59
2023-02-23T22:14:39.783Z,101091.50
2023-02-23T22:17:08.060Z,101084.66
2023-02-23T22:19:41.260Z,101070.28
2023-02-23T22:22:16.061Z,101079.31
2023-02-23T22:24:48.992Z,101077.59
2023-02-23T22:27:17.280Z,101083.19
2023-02-23T22:29:51.117Z,101077.84
2023-02-23T22:32:21.338Z,101075.41
2023-02-23T22:34:50.998Z,101071.00
2023-02-23T22:37:22.110Z,101080.03
2023-02-23T22:39:53.011Z,101072.09
2023-02-23T22:42:21.293Z,101068.56
2023-02-23T22:44:49.308Z,101067.84
2023-02-23T22:47:24.568Z,101070.53
2023-02-23T22:50:01.103Z,101061.63
2023-02-23T22:52:37.910Z,101061.75
2023-02-23T22:55:13.204Z,101059.06
2023-02-23T22:57:45.639Z,101051.97
2023-02-23T23:00:22.243Z,101055.66
2023-02-23T23:02:53.271Z,101061.03
2023-02-23T23:05:25.697Z,101055.91
2023-02-23T23:07:58.268Z,101056.13
2023-02-23T23:10:36.946Z,101047.38
2023-02-23T23:13:13.143Z,101054.66
2023-02-23T23:15:44.276Z,101050.44
2023-02-23T23:18:22.621Z,101051.63
2023-02-23T23:20:56.661Z,101050.03
2023-02-23T23:23:30.967Z,101046.66
2023-02-23T23:26:08.096Z,101037.97
2023-02-23T23:28:43.352Z,101037.34
2023-02-23T23:31:20.722Z,101038.47
2023-02-23T23:33:52.571Z,101040.53
2023-02-23T23:36:29.034Z,101028.34
2023-02-23T23:39:01.988Z,101024.81
2023-02-23T23:41:36.905Z,101023.34
2023-02-23T23:44:10.071Z,101027.13
2023-02-23T23:46:43.282Z,101025.44
2023-02-23T23:49:12.915Z,101021.88
2023-02-23T23:51:44.896Z,101023.72
2023-02-23T23:54:18.052Z,101018.34
2023-02-23T23:56:47.707Z,101022.84
2023-02-23T23:59:17.883Z,101021.16
